Time,TemperatureF,DewpointF,PressureIn,WindDirection,WindDirectionDegrees,WindSpeedMPH,WindSpeedGustMPH,Humidity,HourlyPrecipIn,Conditions,Clouds,dailyrainin,SoftwareType,DateUTC
2013-01-11 00:10:00,41.1,33.0,30.47,SSE,151,0.0,0.0,72,0.00,,,0.00,weatherlink.com 1.10,2013-01-11 05:10:00,
2013-01-11 00:25:00,41.3,33.0,30.47,SSE,150,0.0,0.0,71,0.00,,,0.00,weatherlink.com 1.10,2013-01-11 05:25:00,
2013-01-11 00:40:00,41.0,33.0,30.46,SSE,150,0.0,0.0,73,0.00,,,0.00,weatherlink.com 1.10,2013-01-11 05:40:00,
2013-01-11 00:55:00,41.3,33.0,30.46,SSE,150,0.0,0.0,72,0.00,,,0.00,weatherlink.com 1.10,2013-01-11 05:55:00,
2013-01-11 01:10:00,41.2,34.0,30.46,SSE,152,0.0,0.0,74,0.00,,,0.00,weatherlink.com 1.10,2013-01-11 06:10:00,
2013-01-11 01:25:00,40.4,34.0,30.46,SSE,153,0.0,0.0,77,0.00,,,0.00,weatherlink.com 1.10,2013-01-11 06:25:00,
2013-01-11 01:40:00,40.2,34.0,30.46,SSE,151,0.0,1.0,79,0.00,,,0.00,weatherlink.com 1.10,2013-01-11 06:40:00,
2013-01-11 01:55:00,40.5,34.0,30.46,SSE,153,0.0,1.0,78,0.00,,,0.00,weatherlink.com 1.10,2013-01-11 06:55:00,
2013-01-11 02:10:00,40.6,35.0,30.46,SSE,151,0.0,0.0,80,0.00,,,0.00,weatherlink.com 1.10,2013-01-11 07:10:00,
2013-01-11 02:25:00,40.8,34.0,30.45,NE,41,2.0,3.0,76,0.00,,,0.00,weatherlink.com 1.10,2013-01-11 07:25:00,
2013-01-11 02:40:00,39.6,34.0,30.45,NE,40,0.0,0.0,80,0.00,,,0.00,weatherlink.com 1.10,2013-01-11 07:40:00,
2013-01-11 02:55:00,38.9,34.0,30.44,NE,40,0.0,0.0,81,0.00,,,0.00,weatherlink.com 1.10,2013-01-11 07:55:00,
2013-01-11 03:10:00,39.2,34.0,30.43,NE,41,0.0,1.0,82,0.00,,,0.00,weatherlink.com 1.10,2013-01-11 08:10:00,
2013-01-11 03:25:00,38.8,34.0,30.43,NE,41,0.0,1.0,83,0.00,,,0.00,weatherlink.com 1.10,2013-01-11 08:25:00,
2013-01-11 03:40:00,38.6,34.0,30.43,NE,40,0.0,0.0,83,0.00,,,0.00,weatherlink.com 1.10,2013-01-11 08:40:00,
2013-01-11 03:55:00,38.3,34.0,30.42,North,10,0.0,2.0,84,0.00,,,0.00,weatherlink.com 1.10,2013-01-11 08:55:00,
2013-01-11 04:10:00,38.6,34.0,30.42,North,11,0.0,0.0,84,0.00,,,0.00,weatherlink.com 1.10,2013-01-11 09:10:00,
2013-01-11 04:25:00,38.8,34.0,30.42,WSW,246,1.0,1.0,83,0.00,,,0.00,weatherlink.com 1.10,2013-01-11 09:25:00,
2013-01-11 04:40:00,38.4,34.0,30.41,WSW,257,0.0,0.0,83,0.00,,,0.00,weatherlink.com 1.10,2013-01-11 09:40:00,
2013-01-11 04:55:00,37.6,34.0,30.40,WSW,255,0.0,0.0,85,0.00,,,0.00,weatherlink.com 1.10,2013-01-11 09:55:00,
2013-01-11 05:10:00,37.5,34.0,30.41,WSW,257,0.0,1.0,86,0.00,,,0.00,weatherlink.com 1.10,2013-01-11 10:10:00,
2013-01-11 05:25:00,37.9,34.0,30.41,West,274,0.0,1.0,85,0.00,,,0.00,weatherlink.com 1.10,2013-01-11 10:25:00,
2013-01-11 05:40:00,37.9,34.0,30.41,West,271,0.0,1.0,86,0.00,,,0.00,weatherlink.com 1.10,2013-01-11 10:40:00,
2013-01-11 05:55:00,38.0,34.0,30.40,NNE,15,3.0,-999.0,86,-99.99,,,0.00,weatherlink.com 1.10,2013-01-11 10:55:00,
2013-01-11 06:10:00,37.9,34.0,30.41,North,10,0.0,1.0,87,0.00,,,0.00,weatherlink.com 1.10,2013-01-11 11:10:00,
2013-01-11 06:25:00,38.2,34.0,30.40,NE,51,1.0,1.0,85,0.00,,,0.00,weatherlink.com 1.10,2013-01-11 11:25:00,
2013-01-11 06:40:00,37.9,34.0,30.40,NE,51,0.0,1.0,86,0.00,,,0.00,weatherlink.com 1.10,2013-01-11 11:40:00,
2013-01-11 06:55:00,37.9,34.0,30.38,ENE,76,2.0,2.0,87,0.00,,,0.00,weatherlink.com 1.10,2013-01-11 11:55:00,
2013-01-11 07:10:00,37.9,34.0,30.38,East,95,1.0,3.0,87,0.00,,,0.00,weatherlink.com 1.10,2013-01-11 12:10:00,
2013-01-11 07:26:00,37.9,34.0,30.38,ENE,65,1.0,2.0,87,0.00,,,0.00,weatherlink.com 1.10,2013-01-11 12:26:00,
2013-01-11 07:41:00,38.0,35.0,30.38,East,89,1.0,2.0,88,0.00,,,0.00,weatherlink.com 1.10,2013-01-11 12:41:00,
2013-01-11 07:56:00,38.5,35.0,30.38,ESE,103,1.0,3.0,88,0.00,,,0.00,weatherlink.com 1.10,2013-01-11 12:56:00,
2013-01-11 08:11:00,38.9,35.0,30.39,ENE,60,0.0,3.0,84,0.00,,,0.00,weatherlink.com 1.10,2013-01-11 13:11:00,
2013-01-11 08:26:00,39.4,35.0,30.38,ENE,61,2.0,3.0,83,0.00,,,0.00,weatherlink.com 1.10,2013-01-11 13:26:00,
2013-01-11 08:41:00,39.0,34.0,30.37,North,8,2.0,4.0,83,0.00,,,0.00,weatherlink.com 1.10,2013-01-11 13:41:00,
2013-01-11 08:56:00,39.4,34.0,30.38,North,356,0.0,1.0,82,0.00,,,0.00,weatherlink.com 1.10,2013-01-11 13:56:00,
2013-01-11 09:11:00,39.9,34.0,30.37,NNE,31,2.0,2.0,79,0.00,,,0.00,weatherlink.com 1.10,2013-01-11 14:11:00,
2013-01-11 09:26:00,39.9,35.0,30.35,ENE,67,2.0,2.0,81,0.00,,,0.00,weatherlink.com 1.10,2013-01-11 14:26:00,
2013-01-11 09:41:00,40.1,34.0,30.38,ENE,66,0.0,2.0,79,0.00,,,0.00,weatherlink.com 1.10,2013-01-11 14:41:00,
2013-01-11 09:56:00,40.2,34.0,30.36,ENE,73,3.0,3.0,79,0.00,,,0.00,weatherlink.com 1.10,2013-01-11 14:56:00,
2013-01-11 10:11:00,40.3,34.0,30.34,East,94,3.0,4.0,79,0.00,,,0.00,weatherlink.com 1.10,2013-01-11 15:11:00,
2013-01-11 10:26:00,40.5,35.0,30.35,ESE,105,1.0,3.0,81,0.00,,,0.00,weatherlink.com 1.10,2013-01-11 15:26:00,
2013-01-11 10:41:00,40.6,35.0,30.34,ESE,107,3.0,4.0,80,0.00,,,0.00,weatherlink.com 1.10,2013-01-11 15:41:00,
2013-01-11 10:56:00,40.6,35.0,30.33,East,87,3.0,3.0,81,0.00,,,0.00,weatherlink.com 1.10,2013-01-11 15:56:00,
2013-01-11 11:11:00,40.6,35.0,30.32,East,96,2.0,3.0,80,0.00,,,0.00,weatherlink.com 1.10,2013-01-11 16:11:00,
2013-01-11 11:26:00,40.6,36.0,30.30,ESE,105,2.0,3.0,82,0.00,,,0.00,weatherlink.com 1.10,2013-01-11 16:26:00,
2013-01-11 11:41:00,40.8,36.0,30.30,ENE,68,2.0,3.0,82,0.00,,,0.00,weatherlink.com 1.10,2013-01-11 16:41:00,
2013-01-11 11:56:00,40.6,36.0,30.27,East,80,4.0,4.0,84,0.00,,,0.00,weatherlink.com 1.10,2013-01-11 16:56:00,
2013-01-11 12:11:00,40.7,37.0,30.27,East,83,1.0,1.0,85,0.00,,,0.00,weatherlink.com 1.10,2013-01-11 17:11:00,
2013-01-11 12:26:00,40.8,36.0,30.25,ENE,78,1.0,2.0,84,0.00,,,0.00,weatherlink.com 1.10,2013-01-11 17:26:00,
2013-01-11 12:41:00,41.0,36.0,30.25,East,81,1.0,2.0,83,0.00,,,0.00,weatherlink.com 1.10,2013-01-11 17:41:00,
2013-01-11 12:56:00,41.1,37.0,30.23,ESE,104,3.0,4.0,84,0.00,,,0.00,weatherlink.com 1.10,2013-01-11 17:56:00,
2013-01-11 13:11:00,41.0,37.0,30.23,ESE,102,1.0,3.0,85,0.00,,,0.00,weatherlink.com 1.10,2013-01-11 18:11:00,
2013-01-11 13:26:00,41.1,37.0,30.21,East,101,2.0,2.0,85,0.00,,,0.00,weatherlink.com 1.10,2013-01-11 18:26:00,
2013-01-11 13:41:00,41.2,37.0,30.20,ESE,105,1.0,1.0,84,0.00,,,0.00,weatherlink.com 1.10,2013-01-11 18:41:00,
2013-01-11 13:56:00,41.2,37.0,30.20,ESE,105,0.0,1.0,85,0.00,,,0.00,weatherlink.com 1.10,2013-01-11 18:56:00,
2013-01-11 14:11:00,41.5,37.0,30.19,ESE,106,0.0,0.0,83,0.00,,,0.00,weatherlink.com 1.10,2013-01-11 19:11:00,
2013-01-11 14:26:00,41.7,37.0,30.20,ESE,106,0.0,1.0,82,0.00,,,0.00,weatherlink.com 1.10,2013-01-11 19:26:00,
2013-01-11 14:41:00,41.9,37.0,30.18,ESE,105,0.0,1.0,83,0.00,,,0.00,weatherlink.com 1.10,2013-01-11 19:41:00,
2013-01-11 14:56:00,41.9,37.0,30.18,ESE,105,0.0,1.0,83,0.00,,,0.00,weatherlink.com 1.10,2013-01-11 19:56:00,
2013-01-11 15:11:00,41.9,38.0,30.17,ESE,106,0.0,0.0,85,0.00,,,0.00,weatherlink.com 1.10,2013-01-11 20:11:00,
2013-01-11 15:26:00,41.8,38.0,30.16,ESE,105,0.0,1.0,87,0.00,,,0.00,weatherlink.com 1.10,2013-01-11 20:26:00,
2013-01-11 15:41:00,42.0,39.0,30.16,ESE,105,0.0,1.0,90,0.00,,,0.00,weatherlink.com 1.10,2013-01-11 20:41:00,
2013-01-11 15:57:00,42.2,40.0,30.14,ESE,105,0.0,1.0,91,0.01,,,0.01,weatherlink.com 1.10,2013-01-11 20:57:00,
2013-01-11 16:12:00,42.3,40.0,30.14,ESE,105,0.0,0.0,92,0.01,,,0.01,weatherlink.com 1.10,2013-01-11 21:12:00,
2013-01-11 16:27:00,42.5,40.0,30.13,ESE,105,0.0,1.0,92,0.01,,,0.01,weatherlink.com 1.10,2013-01-11 21:27:00,
2013-01-11 16:42:00,42.7,41.0,30.14,ESE,105,0.0,0.0,93,0.01,,,0.01,weatherlink.com 1.10,2013-01-11 21:42:00,
2013-01-11 16:57:00,42.6,41.0,30.13,North,356,2.0,2.0,93,0.00,,,0.01,weatherlink.com 1.10,2013-01-11 21:57:00,
2013-01-11 17:12:00,42.3,41.0,30.12,North,358,3.0,3.0,94,0.00,,,0.01,weatherlink.com 1.10,2013-01-11 22:12:00,
2013-01-11 17:27:00,42.3,41.0,30.11,North,349,2.0,3.0,95,0.00,,,0.01,weatherlink.com 1.10,2013-01-11 22:27:00,
2013-01-11 17:57:00,42.4,41.0,30.11,WNW,285,2.0,3.0,95,0.00,,,0.01,weatherlink.com 1.10,2013-01-11 22:57:00,
2013-01-11 18:12:00,42.4,41.0,30.10,West,276,2.0,2.0,96,0.01,,,0.02,weatherlink.com 1.10,2013-01-11 23:12:00,
2013-01-11 18:27:00,42.6,42.0,30.10,NW,319,4.0,4.0,96,0.02,,,0.03,weatherlink.com 1.10,2013-01-11 23:27:00,
2013-01-11 18:42:00,42.7,42.0,30.10,NNW,340,2.0,4.0,96,0.02,,,0.03,weatherlink.com 1.10,2013-01-11 23:42:00,
2013-01-11 18:57:00,42.7,42.0,30.10,WNW,300,4.0,6.0,96,0.02,,,0.03,weatherlink.com 1.10,2013-01-11 23:57:00,
2013-01-11 19:12:00,42.6,42.0,30.10,NW,311,5.0,7.0,96,0.01,,,0.03,weatherlink.com 1.10,2013-01-12 00:12:00,
2013-01-11 19:27:00,42.5,42.0,30.10,WNW,298,3.0,5.0,96,0.00,,,0.03,weatherlink.com 1.10,2013-01-12 00:27:00,
2013-01-11 19:42:00,42.6,42.0,30.10,WNW,297,3.0,5.0,96,0.00,,,0.03,weatherlink.com 1.10,2013-01-12 00:42:00,
2013-01-11 19:58:00,42.6,42.0,30.09,West,277,1.0,4.0,97,0.00,,,0.03,weatherlink.com 1.10,2013-01-12 00:58:00,
2013-01-11 20:27:00,42.9,42.0,30.08,North,357,1.0,3.0,97,0.00,,,0.03,weatherlink.com 1.10,2013-01-12 01:27:00,
2013-01-11 20:42:00,42.6,42.0,30.09,NNW,340,2.0,5.0,97,0.00,,,0.03,weatherlink.com 1.10,2013-01-12 01:42:00,
2013-01-11 20:57:00,42.7,42.0,30.09,NNW,330,1.0,3.0,97,0.00,,,0.03,weatherlink.com 1.10,2013-01-12 01:57:00,
2013-01-11 21:12:00,42.8,42.0,30.08,North,8,1.0,2.0,97,0.00,,,0.03,weatherlink.com 1.10,2013-01-12 02:12:00,
2013-01-11 21:27:00,42.5,42.0,30.07,North,8,0.0,1.0,97,0.00,,,0.03,weatherlink.com 1.10,2013-01-12 02:27:00,
2013-01-11 21:42:00,42.4,42.0,30.07,North,8,0.0,1.0,97,0.00,,,0.03,weatherlink.com 1.10,2013-01-12 02:42:00,
2013-01-11 21:57:00,42.5,42.0,30.08,North,8,0.0,0.0,97,0.00,,,0.03,weatherlink.com 1.10,2013-01-12 02:57:00,
2013-01-11 22:12:00,42.7,42.0,30.07,ESE,116,1.0,1.0,97,0.00,,,0.03,weatherlink.com 1.10,2013-01-12 03:12:00,
2013-01-11 22:27:00,42.8,42.0,30.07,SSE,152,1.0,2.0,97,0.00,,,0.03,weatherlink.com 1.10,2013-01-12 03:27:00,
2013-01-11 22:42:00,42.9,42.0,30.07,SSE,153,1.0,1.0,97,0.00,,,0.03,weatherlink.com 1.10,2013-01-12 03:42:00,
2013-01-11 22:57:00,43.0,42.0,30.07,SW,231,0.0,1.0,97,0.00,,,0.03,weatherlink.com 1.10,2013-01-12 03:57:00,
2013-01-11 23:12:00,43.2,42.0,30.07,WSW,253,2.0,2.0,97,0.00,,,0.03,weatherlink.com 1.10,2013-01-12 04:12:00,
2013-01-11 23:27:00,43.5,43.0,30.06,WSW,241,2.0,3.0,97,0.00,,,0.03,weatherlink.com 1.10,2013-01-12 04:27:00,
2013-01-11 23:42:00,43.5,43.0,30.05,WSW,242,1.0,4.0,97,0.00,,,0.03,weatherlink.com 1.10,2013-01-12 04:42:00,
2013-01-11 23:57:00,43.5,43.0,30.06,West,270,3.0,3.0,97,0.00,,,0.03,weatherlink.com 1.10,2013-01-12 04:57:00,